Weather at Chennai International Airport

Public forecast

Using degrees Celsius for public forecast. Weather courtesy of forecast.io.

Current aviation weather report (METAR) for Chennai International Airport

2024/06/16 22:00 (retrieved 34 minutes ago)

VOMM 162200Z 25007KT 5000 BR SCT020 FEW025CB SCT100 28/24 Q1004 NOSIG

Aviation forecast (TAF) for Chennai International Airport

2024/06/16 18:45 (retrieved 4 hours ago)

TAF TAF VOMM 161700Z 1618/1724 21010KT 5000 BR FEW020 SCT100 TEMPO 1618/1624 27010G20KT 3000 TSRA/RA FEW018 FEW025TCU/CB BKN080 BECMG 1703/1704 6000 BECMG 1709/1710 15005KT BECMG 1712/1713 5000 HZ TEMPO 1712/1718 3000 TSRA/RA FEW018 FEW025TCU/CB BKN080